Santiago, Chile

3:57 AM CLST on October 26, 2014 (GMT -0300)
Pudahuel Bezanilla Solar | Change Station
CLOSE
Current Station
Personal Weather Station
Location: Santiago, REGIóN METROPOLITANA DE SANTIAGO
Elevation: 1535 ft
Nearby Weather Stations

Elev 1535 ft 33.43 °S, 70.82 °W | Updated 13 seconds ago

Clear
Clear
52.0 °F
Feels Like 52.0 °F
N
0.0
Wind Variable Wind from West
Gusts 0.0 mph

Today
High -- | Low -- °F
--% Chance of Precip.
Yesterday
High -- | Low -- °F
Precip. -- in
6:49 AM 8:05 PM
Waxing Crescent, 6% visible
Pressure 29.95 in
Visibility -9999.0 miles
Clouds
Dew Point 50 °F
Humidity 92%
Rainfall 0.00 in
Snow Depth Not available.
UV 0.0 out of 12
Pollen Not available.
Air Quality Not available.
Flu Activity Not available.
METAR SCEL 260600Z 15008KT CAVOK 14/08 Q1014 NOSIG

More Conditions Fewer Conditions

Pressure 29.95 in
Visibility -9999.0 miles
Clouds
Dew Point 50 °F
Humidity 92%
Rainfall 0.00 in
Snow Depth Not available.
UV 0.0 out of 12
Pollen Not available.
Air Quality Not available.
Flu Activity Not available.
METAR SCEL 260600Z 15008KT CAVOK 14/08 Q1014 NOSIG

More Conditions Fewer Conditions

10-Day Weather Forecast

Almanac

Astronomy

Oct. 26, 2014 Rise Set
Actual Time 6:49 AM CLST 8:05 PM CLST
Civil Twilight 6:23 AM CLST 8:31 PM CLST
Nautical Twilight 5:52 AM CLST 9:02 PM CLST
Astronomical Twilight 5:20 AM CLST 9:34 PM CLST
Moon 8:47 AM CLST 10:54 PM CLST
Length of Visible Light 14h 07m
Length of Day
13h 15m
Tomorrow will be 1m 56s longer.
Waxing Crescent, 6% of the Moon is Illuminated
Today
Waxing Crescent
Oct 30
First Quarter
Nov 6
Full
Nov 14
Last Quarter
Nov 22
New

Yesterday's Extremes

Country Highs Country Lows

Community

WunderPhotos

Upload Photos

1,765,117 photos uploaded!

Nearby

Snow Depth

Not available.

Earthquake Activity

City Distance Mag. Time & Date
No recent earthquake activity has been reported nearby.
Minimum magnitude displayed is 2.5.

Coastal Water Temperatures

Place Temperature
No Stations Reporting

Nearby Weather Stations